sensor_id;sensor_type;location;lat;lon;timestamp;temperature;humidity
18260;DHT22;9256;52.236;5.712;2023-12-14T00:00:47;5.50;99.90
18260;DHT22;9256;52.236;5.712;2023-12-14T00:03:14;5.50;99.90
18260;DHT22;9256;52.236;5.712;2023-12-14T00:05:42;5.40;99.90
18260;DHT22;9256;52.236;5.712;2023-12-14T00:08:09;5.40;99.90
18260;DHT22;9256;52.236;5.712;2023-12-14T00:10:36;5.40;99.90
18260;DHT22;9256;52.236;5.712;2023-12-14T00:13:03;5.40;99.90
18260;DHT22;9256;52.236;5.712;2023-12-14T00:15:31;5.40;99.90
18260;DHT22;9256;52.236;5.712;2023-12-14T00:17:58;5.40;99.90
18260;DHT22;9256;52.236;5.712;2023-12-14T00:20:25;5.40;99.90
18260;DHT22;9256;52.236;5.712;2023-12-14T00:22:53;5.40;99.90
18260;DHT22;9256;52.236;5.712;2023-12-14T00:25:20;5.30;99.90
18260;DHT22;9256;52.236;5.712;2023-12-14T00:27:47;5.40;99.90
18260;DHT22;9256;52.236;5.712;2023-12-14T00:30:14;5.40;99.90
18260;DHT22;9256;52.236;5.712;2023-12-14T00:32:41;5.40;99.90
18260;DHT22;9256;52.236;5.712;2023-12-14T00:35:08;5.30;99.90
18260;DHT22;9256;52.236;5.712;2023-12-14T00:37:35;5.30;99.90
18260;DHT22;9256;52.236;5.712;2023-12-14T00:40:04;5.30;99.90
18260;DHT22;9256;52.236;5.712;2023-12-14T00:42:31;5.30;99.90
18260;DHT22;9256;52.236;5.712;2023-12-14T00:44:57;5.20;99.90
18260;DHT22;9256;52.236;5.712;2023-12-14T00:47:24;5.30;99.90
18260;DHT22;9256;52.236;5.712;2023-12-14T00:49:51;5.30;99.90
18260;DHT22;9256;52.236;5.712;2023-12-14T00:52:19;5.40;99.90
18260;DHT22;9256;52.236;5.712;2023-12-14T00:54:45;5.40;99.90
18260;DHT22;9256;52.236;5.712;2023-12-14T00:57:14;5.30;99.90
18260;DHT22;9256;52.236;5.712;2023-12-14T00:59:41;5.30;99.90
18260;DHT22;9256;52.236;5.712;2023-12-14T01:02:08;5.30;99.90
18260;DHT22;9256;52.236;5.712;2023-12-14T01:04:35;5.20;99.90
18260;DHT22;9256;52.236;5.712;2023-12-14T01:07:03;5.30;99.90
18260;DHT22;9256;52.236;5.712;2023-12-14T01:09:30;5.30;99.90
18260;DHT22;9256;52.236;5.712;2023-12-14T01:11:57;5.20;99.90
18260;DHT22;9256;52.236;5.712;2023-12-14T01:14:25;5.20;99.90
18260;DHT22;9256;52.236;5.712;2023-12-14T01:16:52;5.20;99.90
18260;DHT22;9256;52.236;5.712;2023-12-14T01:19:19;5.20;99.90
18260;DHT22;9256;52.236;5.712;2023-12-14T01:21:46;5.30;99.90
18260;DHT22;9256;52.236;5.712;2023-12-14T01:24:13;5.20;99.90
18260;DHT22;9256;52.236;5.712;2023-12-14T01:26:40;5.10;99.90
18260;DHT22;9256;52.236;5.712;2023-12-14T01:29:07;5.20;99.90
18260;DHT22;9256;52.236;5.712;2023-12-14T01:31:35;5.30;99.90
18260;DHT22;9256;52.236;5.712;2023-12-14T01:34:02;5.30;99.90
18260;DHT22;9256;52.236;5.712;2023-12-14T01:36:29;5.20;99.90
18260;DHT22;9256;52.236;5.712;2023-12-14T01:38:56;5.30;99.90
18260;DHT22;9256;52.236;5.712;2023-12-14T01:41:23;5.30;99.90
18260;DHT22;9256;52.236;5.712;2023-12-14T01:43:50;5.30;99.90
18260;DHT22;9256;52.236;5.712;2023-12-14T01:46:17;5.30;99.90
18260;DHT22;9256;52.236;5.712;2023-12-14T01:48:45;5.30;99.90
18260;DHT22;9256;52.236;5.712;2023-12-14T01:51:12;5.30;99.90
18260;DHT22;9256;52.236;5.712;2023-12-14T01:53:39;5.30;99.90
18260;DHT22;9256;52.236;5.712;2023-12-14T01:56:07;5.30;99.90
18260;DHT22;9256;52.236;5.712;2023-12-14T01:58:34;5.30;99.90
18260;DHT22;9256;52.236;5.712;2023-12-14T02:01:07;5.20;99.90
18260;DHT22;9256;52.236;5.712;2023-12-14T02:03:35;5.30;99.90
18260;DHT22;9256;52.236;5.712;2023-12-14T02:06:04;5.20;99.90
18260;DHT22;9256;52.236;5.712;2023-12-14T02:08:31;5.20;99.90
18260;DHT22;9256;52.236;5.712;2023-12-14T02:10:58;5.20;99.90
18260;DHT22;9256;52.236;5.712;2023-12-14T02:13:24;5.30;99.90
18260;DHT22;9256;52.236;5.712;2023-12-14T02:15:52;5.30;99.90
18260;DHT22;9256;52.236;5.712;2023-12-14T02:18:20;5.30;99.90
18260;DHT22;9256;52.236;5.712;2023-12-14T02:20:47;5.20;99.90
18260;DHT22;9256;52.236;5.712;2023-12-14T02:23:15;5.30;99.90
18260;DHT22;9256;52.236;5.712;2023-12-14T02:25:42;5.20;99.90
18260;DHT22;9256;52.236;5.712;2023-12-14T02:28:09;5.20;99.90
18260;DHT22;9256;52.236;5.712;2023-12-14T02:30:36;5.20;99.90
18260;DHT22;9256;52.236;5.712;2023-12-14T02:33:03;5.20;99.90
18260;DHT22;9256;52.236;5.712;2023-12-14T02:35:30;5.20;99.90
18260;DHT22;9256;52.236;5.712;2023-12-14T02:37:57;5.30;99.90
18260;DHT22;9256;52.236;5.712;2023-12-14T02:40:25;5.30;99.90
18260;DHT22;9256;52.236;5.712;2023-12-14T02:42:52;5.30;99.90
18260;DHT22;9256;52.236;5.712;2023-12-14T02:45:19;5.30;99.90
18260;DHT22;9256;52.236;5.712;2023-12-14T02:47:45;5.30;99.90
18260;DHT22;9256;52.236;5.712;2023-12-14T02:50:14;5.30;99.90
18260;DHT22;9256;52.236;5.712;2023-12-14T02:52:41;5.30;99.90
18260;DHT22;9256;52.236;5.712;2023-12-14T02:55:08;5.30;99.90
18260;DHT22;9256;52.236;5.712;2023-12-14T02:57:36;5.40;99.90
18260;DHT22;9256;52.236;5.712;2023-12-14T03:00:04;5.30;99.90
18260;DHT22;9256;52.236;5.712;2023-12-14T03:02:31;5.30;99.90
18260;DHT22;9256;52.236;5.712;2023-12-14T03:04:58;5.30;99.90
18260;DHT22;9256;52.236;5.712;2023-12-14T03:07:25;5.30;99.90
18260;DHT22;9256;52.236;5.712;2023-12-14T03:09:52;5.40;99.90
18260;DHT22;9256;52.236;5.712;2023-12-14T03:12:19;5.40;99.90
18260;DHT22;9256;52.236;5.712;2023-12-14T03:14:47;5.30;99.90
18260;DHT22;9256;52.236;5.712;2023-12-14T03:17:14;5.30;99.90
18260;DHT22;9256;52.236;5.712;2023-12-14T03:19:42;5.30;99.90
18260;DHT22;9256;52.236;5.712;2023-12-14T03:22:09;5.30;99.90
18260;DHT22;9256;52.236;5.712;2023-12-14T03:24:36;5.30;99.90
18260;DHT22;9256;52.236;5.712;2023-12-14T03:27:05;5.30;99.90
18260;DHT22;9256;52.236;5.712;2023-12-14T03:29:32;5.30;99.90
18260;DHT22;9256;52.236;5.712;2023-12-14T03:32:00;5.30;99.90
18260;DHT22;9256;52.236;5.712;2023-12-14T03:34:27;5.30;99.90
18260;DHT22;9256;52.236;5.712;2023-12-14T03:36:54;5.20;99.90
18260;DHT22;9256;52.236;5.712;2023-12-14T03:39:21;5.20;99.90
18260;DHT22;9256;52.236;5.712;2023-12-14T03:41:48;5.20;99.90
18260;DHT22;9256;52.236;5.712;2023-12-14T03:44:15;5.20;99.90
18260;DHT22;9256;52.236;5.712;2023-12-14T03:46:41;5.20;99.90
18260;DHT22;9256;52.236;5.712;2023-12-14T03:49:10;5.20;99.90
18260;DHT22;9256;52.236;5.712;2023-12-14T03:51:37;5.20;99.90
18260;DHT22;9256;52.236;5.712;2023-12-14T03:54:03;5.20;99.90
18260;DHT22;9256;52.236;5.712;2023-12-14T03:56:30;5.20;99.90
18260;DHT22;9256;52.236;5.712;2023-12-14T03:58:57;5.20;99.90
18260;DHT22;9256;52.236;5.712;2023-12-14T04:01:24;5.20;99.90
18260;DHT22;9256;52.236;5.712;2023-12-14T04:03:51;5.10;99.90
18260;DHT22;9256;52.236;5.712;2023-12-14T04:06:19;5.10;99.90
18260;DHT22;9256;52.236;5.712;2023-12-14T04:08:46;5.10;99.90
18260;DHT22;9256;52.236;5.712;2023-12-14T04:11:13;5.10;99.90
18260;DHT22;9256;52.236;5.712;2023-12-14T04:13:40;5.10;99.90
18260;DHT22;9256;52.236;5.712;2023-12-14T04:16:07;5.00;99.90
18260;DHT22;9256;52.236;5.712;2023-12-14T04:18:35;5.10;99.90
18260;DHT22;9256;52.236;5.712;2023-12-14T04:21:03;5.00;99.90
18260;DHT22;9256;52.236;5.712;2023-12-14T04:23:32;5.00;99.90
18260;DHT22;9256;52.236;5.712;2023-12-14T04:25:59;5.00;99.90
18260;DHT22;9256;52.236;5.712;2023-12-14T04:28:26;5.00;99.90
18260;DHT22;9256;52.236;5.712;2023-12-14T04:30:53;5.00;99.90
18260;DHT22;9256;52.236;5.712;2023-12-14T04:33:19;5.10;99.90
18260;DHT22;9256;52.236;5.712;2023-12-14T04:35:47;5.10;99.90
18260;DHT22;9256;52.236;5.712;2023-12-14T04:38:14;5.10;99.90
18260;DHT22;9256;52.236;5.712;2023-12-14T04:40:42;5.00;99.90
18260;DHT22;9256;52.236;5.712;2023-12-14T04:43:09;5.00;99.90
18260;DHT22;9256;52.236;5.712;2023-12-14T04:45:36;5.00;99.90
18260;DHT22;9256;52.236;5.712;2023-12-14T04:48:03;5.00;99.90
18260;DHT22;9256;52.236;5.712;2023-12-14T04:50:30;5.00;99.90
18260;DHT22;9256;52.236;5.712;2023-12-14T04:52:57;5.00;99.90
18260;DHT22;9256;52.236;5.712;2023-12-14T04:55:23;5.10;99.90
18260;DHT22;9256;52.236;5.712;2023-12-14T04:57:52;5.10;99.90
18260;DHT22;9256;52.236;5.712;2023-12-14T05:00:19;5.00;99.90
18260;DHT22;9256;52.236;5.712;2023-12-14T05:02:47;5.10;99.90
18260;DHT22;9256;52.236;5.712;2023-12-14T05:05:15;5.00;99.90
18260;DHT22;9256;52.236;5.712;2023-12-14T05:07:41;5.00;99.90
18260;DHT22;9256;52.236;5.712;2023-12-14T05:10:09;5.00;99.90
18260;DHT22;9256;52.236;5.712;2023-12-14T05:12:36;5.00;99.90
18260;DHT22;9256;52.236;5.712;2023-12-14T05:15:06;5.00;99.90
18260;DHT22;9256;52.236;5.712;2023-12-14T05:17:33;5.00;99.90
18260;DHT22;9256;52.236;5.712;2023-12-14T05:20:02;5.00;99.90
18260;DHT22;9256;52.236;5.712;2023-12-14T05:22:30;5.00;99.90
18260;DHT22;9256;52.236;5.712;2023-12-14T05:24:57;5.00;99.90
18260;DHT22;9256;52.236;5.712;2023-12-14T05:27:23;5.00;99.90
18260;DHT22;9256;52.236;5.712;2023-12-14T05:29:50;5.00;99.90
18260;DHT22;9256;52.236;5.712;2023-12-14T05:32:19;5.00;99.90
18260;DHT22;9256;52.236;5.712;2023-12-14T05:34:46;5.00;99.90
18260;DHT22;9256;52.236;5.712;2023-12-14T05:37:13;5.00;99.90
18260;DHT22;9256;52.236;5.712;2023-12-14T05:39:41;4.90;99.90
18260;DHT22;9256;52.236;5.712;2023-12-14T05:42:08;4.90;99.90
18260;DHT22;9256;52.236;5.712;2023-12-14T05:44:35;4.90;99.90
18260;DHT22;9256;52.236;5.712;2023-12-14T05:47:02;4.80;99.90
18260;DHT22;9256;52.236;5.712;2023-12-14T05:49:31;4.80;99.90
18260;DHT22;9256;52.236;5.712;2023-12-14T05:51:59;4.90;99.90
18260;DHT22;9256;52.236;5.712;2023-12-14T05:54:26;4.90;99.90
18260;DHT22;9256;52.236;5.712;2023-12-14T05:56:53;4.80;99.90
18260;DHT22;9256;52.236;5.712;2023-12-14T05:59:20;4.80;99.90
18260;DHT22;9256;52.236;5.712;2023-12-14T06:01:47;4.80;99.90
18260;DHT22;9256;52.236;5.712;2023-12-14T06:04:14;4.90;99.90
18260;DHT22;9256;52.236;5.712;2023-12-14T06:06:42;4.80;99.90
18260;DHT22;9256;52.236;5.712;2023-12-14T06:09:09;4.90;99.90
18260;DHT22;9256;52.236;5.712;2023-12-14T06:11:35;4.80;99.90
18260;DHT22;9256;52.236;5.712;2023-12-14T06:14:03;4.80;99.90
18260;DHT22;9256;52.236;5.712;2023-12-14T06:16:30;4.80;99.90
18260;DHT22;9256;52.236;5.712;2023-12-14T06:18:57;4.70;99.90
18260;DHT22;9256;52.236;5.712;2023-12-14T06:21:23;4.70;99.90
18260;DHT22;9256;52.236;5.712;2023-12-14T06:23:55;4.80;99.90
18260;DHT22;9256;52.236;5.712;2023-12-14T06:26:22;4.70;99.90
18260;DHT22;9256;52.236;5.712;2023-12-14T06:28:49;4.70;99.90
18260;DHT22;9256;52.236;5.712;2023-12-14T06:31:17;4.70;99.90
18260;DHT22;9256;52.236;5.712;2023-12-14T06:33:47;4.70;99.90
18260;DHT22;9256;52.236;5.712;2023-12-14T06:36:16;4.60;99.90
18260;DHT22;9256;52.236;5.712;2023-12-14T06:38:43;4.60;99.90
18260;DHT22;9256;52.236;5.712;2023-12-14T06:41:20;4.60;99.90
18260;DHT22;9256;52.236;5.712;2023-12-14T06:43:47;4.60;99.90
18260;DHT22;9256;52.236;5.712;2023-12-14T06:46:14;4.60;99.90
18260;DHT22;9256;52.236;5.712;2023-12-14T06:48:41;4.60;99.90
18260;DHT22;9256;52.236;5.712;2023-12-14T06:51:08;4.60;99.90
18260;DHT22;9256;52.236;5.712;2023-12-14T06:53:35;4.60;99.90
18260;DHT22;9256;52.236;5.712;2023-12-14T06:56:03;4.60;99.90
18260;DHT22;9256;52.236;5.712;2023-12-14T06:58:31;4.60;99.90
18260;DHT22;9256;52.236;5.712;2023-12-14T07:00:58;4.60;99.90
18260;DHT22;9256;52.236;5.712;2023-12-14T07:03:25;4.60;99.90
18260;DHT22;9256;52.236;5.712;2023-12-14T07:05:52;4.70;99.90
18260;DHT22;9256;52.236;5.712;2023-12-14T07:08:19;4.70;99.90
18260;DHT22;9256;52.236;5.712;2023-12-14T07:10:46;4.70;99.90
18260;DHT22;9256;52.236;5.712;2023-12-14T07:13:12;4.70;99.90
18260;DHT22;9256;52.236;5.712;2023-12-14T07:15:41;4.80;99.90
18260;DHT22;9256;52.236;5.712;2023-12-14T07:18:08;4.80;99.90
18260;DHT22;9256;52.236;5.712;2023-12-14T07:20:34;4.70;99.90
18260;DHT22;9256;52.236;5.712;2023-12-14T07:23:01;4.70;99.90
18260;DHT22;9256;52.236;5.712;2023-12-14T07:25:28;4.80;99.90
18260;DHT22;9256;52.236;5.712;2023-12-14T07:27:55;4.80;99.90
18260;DHT22;9256;52.236;5.712;2023-12-14T07:30:22;4.80;99.90
18260;DHT22;9256;52.236;5.712;2023-12-14T07:32:50;4.70;99.90
18260;DHT22;9256;52.236;5.712;2023-12-14T07:35:17;4.70;99.90
18260;DHT22;9256;52.236;5.712;2023-12-14T07:37:44;4.70;99.90
18260;DHT22;9256;52.236;5.712;2023-12-14T07:40:12;4.70;99.90
18260;DHT22;9256;52.236;5.712;2023-12-14T07:42:39;4.80;99.90
18260;DHT22;9256;52.236;5.712;2023-12-14T07:45:07;4.80;99.90
18260;DHT22;9256;52.236;5.712;2023-12-14T07:47:35;4.70;99.90
18260;DHT22;9256;52.236;5.712;2023-12-14T07:50:04;4.70;99.90
18260;DHT22;9256;52.236;5.712;2023-12-14T07:52:31;4.70;99.90
18260;DHT22;9256;52.236;5.712;2023-12-14T07:54:58;4.70;99.90
18260;DHT22;9256;52.236;5.712;2023-12-14T07:57:25;4.60;99.90
18260;DHT22;9256;52.236;5.712;2023-12-14T07:59:52;4.60;99.90
18260;DHT22;9256;52.236;5.712;2023-12-14T08:02:19;4.60;99.90
18260;DHT22;9256;52.236;5.712;2023-12-14T08:04:46;4.70;99.90
18260;DHT22;9256;52.236;5.712;2023-12-14T08:07:14;4.60;99.90
18260;DHT22;9256;52.236;5.712;2023-12-14T08:09:41;4.60;99.90
18260;DHT22;9256;52.236;5.712;2023-12-14T08:12:08;4.70;99.90
18260;DHT22;9256;52.236;5.712;2023-12-14T08:14:35;4.70;99.90
18260;DHT22;9256;52.236;5.712;2023-12-14T08:17:03;4.70;99.90
18260;DHT22;9256;52.236;5.712;2023-12-14T08:19:30;4.70;99.90
18260;DHT22;9256;52.236;5.712;2023-12-14T08:21:57;4.70;99.90
18260;DHT22;9256;52.236;5.712;2023-12-14T08:24:26;4.70;99.90
18260;DHT22;9256;52.236;5.712;2023-12-14T08:26:55;4.70;99.90
18260;DHT22;9256;52.236;5.712;2023-12-14T08:29:22;4.70;99.90
18260;DHT22;9256;52.236;5.712;2023-12-14T08:31:49;4.70;99.90
18260;DHT22;9256;52.236;5.712;2023-12-14T08:34:16;4.70;99.90
18260;DHT22;9256;52.236;5.712;2023-12-14T08:36:43;4.80;99.90
18260;DHT22;9256;52.236;5.712;2023-12-14T08:39:10;4.70;99.90
18260;DHT22;9256;52.236;5.712;2023-12-14T08:41:38;4.70;99.90
18260;DHT22;9256;52.236;5.712;2023-12-14T08:44:06;4.80;99.90
18260;DHT22;9256;52.236;5.712;2023-12-14T08:46:38;4.90;99.90
18260;DHT22;9256;52.236;5.712;2023-12-14T08:49:05;4.90;99.90
18260;DHT22;9256;52.236;5.712;2023-12-14T08:51:32;4.90;99.90
18260;DHT22;9256;52.236;5.712;2023-12-14T08:54:01;4.90;99.90
18260;DHT22;9256;52.236;5.712;2023-12-14T08:56:28;4.80;99.90
18260;DHT22;9256;52.236;5.712;2023-12-14T08:58:56;4.80;99.90
18260;DHT22;9256;52.236;5.712;2023-12-14T09:01:25;4.90;99.90
18260;DHT22;9256;52.236;5.712;2023-12-14T09:03:52;4.90;99.90
18260;DHT22;9256;52.236;5.712;2023-12-14T09:06:19;4.90;99.90
18260;DHT22;9256;52.236;5.712;2023-12-14T09:08:46;4.90;99.90
18260;DHT22;9256;52.236;5.712;2023-12-14T09:11:13;4.80;99.90
18260;DHT22;9256;52.236;5.712;2023-12-14T09:13:40;4.90;99.90
18260;DHT22;9256;52.236;5.712;2023-12-14T09:16:09;4.90;99.90
18260;DHT22;9256;52.236;5.712;2023-12-14T09:18:36;4.90;99.90
18260;DHT22;9256;52.236;5.712;2023-12-14T09:21:03;4.90;99.90
18260;DHT22;9256;52.236;5.712;2023-12-14T09:23:30;4.80;99.90
18260;DHT22;9256;52.236;5.712;2023-12-14T09:25:57;4.90;99.90
18260;DHT22;9256;52.236;5.712;2023-12-14T09:28:24;4.90;99.90
18260;DHT22;9256;52.236;5.712;2023-12-14T09:30:51;4.80;99.90
18260;DHT22;9256;52.236;5.712;2023-12-14T09:33:20;4.90;99.90
18260;DHT22;9256;52.236;5.712;2023-12-14T09:35:47;4.80;99.90
18260;DHT22;9256;52.236;5.712;2023-12-14T09:38:13;4.80;99.90
18260;DHT22;9256;52.236;5.712;2023-12-14T09:40:43;4.80;99.90
18260;DHT22;9256;52.236;5.712;2023-12-14T09:43:10;4.70;99.90
18260;DHT22;9256;52.236;5.712;2023-12-14T09:45:39;4.70;99.90
18260;DHT22;9256;52.236;5.712;2023-12-14T09:48:10;4.80;99.90
18260;DHT22;9256;52.236;5.712;2023-12-14T09:50:40;4.80;99.90
18260;DHT22;9256;52.236;5.712;2023-12-14T09:53:07;4.80;99.90
18260;DHT22;9256;52.236;5.712;2023-12-14T09:55:34;4.90;99.90
18260;DHT22;9256;52.236;5.712;2023-12-14T09:58:01;4.90;99.90
18260;DHT22;9256;52.236;5.712;2023-12-14T10:00:33;4.80;99.90
18260;DHT22;9256;52.236;5.712;2023-12-14T10:03:17;4.90;99.90
18260;DHT22;9256;52.236;5.712;2023-12-14T10:05:46;4.90;99.90
18260;DHT22;9256;52.236;5.712;2023-12-14T10:08:14;4.90;99.90
18260;DHT22;9256;52.236;5.712;2023-12-14T10:10:41;5.00;99.90
18260;DHT22;9256;52.236;5.712;2023-12-14T10:13:09;4.90;99.90
18260;DHT22;9256;52.236;5.712;2023-12-14T10:15:42;5.00;99.90
18260;DHT22;9256;52.236;5.712;2023-12-14T10:18:09;5.10;99.90
18260;DHT22;9256;52.236;5.712;2023-12-14T10:20:36;5.10;99.90
18260;DHT22;9256;52.236;5.712;2023-12-14T10:23:06;5.20;99.90
18260;DHT22;9256;52.236;5.712;2023-12-14T10:25:35;5.20;99.90
18260;DHT22;9256;52.236;5.712;2023-12-14T10:28:02;5.30;99.90
18260;DHT22;9256;52.236;5.712;2023-12-14T10:30:29;5.30;99.90
18260;DHT22;9256;52.236;5.712;2023-12-14T10:32:57;5.40;99.90
18260;DHT22;9256;52.236;5.712;2023-12-14T10:35:24;5.50;99.90
18260;DHT22;9256;52.236;5.712;2023-12-14T10:37:51;5.50;99.90
18260;DHT22;9256;52.236;5.712;2023-12-14T10:40:21;5.50;99.90
18260;DHT22;9256;52.236;5.712;2023-12-14T10:42:49;5.60;99.90
18260;DHT22;9256;52.236;5.712;2023-12-14T10:45:18;5.40;99.90
18260;DHT22;9256;52.236;5.712;2023-12-14T10:47:46;5.60;99.90
18260;DHT22;9256;52.236;5.712;2023-12-14T10:50:13;5.60;99.90
18260;DHT22;9256;52.236;5.712;2023-12-14T10:52:40;5.70;99.90
18260;DHT22;9256;52.236;5.712;2023-12-14T10:55:11;5.80;99.90
18260;DHT22;9256;52.236;5.712;2023-12-14T10:57:41;6.00;99.90
18260;DHT22;9256;52.236;5.712;2023-12-14T11:00:09;6.10;99.90
18260;DHT22;9256;52.236;5.712;2023-12-14T11:02:41;6.00;99.90
18260;DHT22;9256;52.236;5.712;2023-12-14T11:05:12;6.00;99.90
18260;DHT22;9256;52.236;5.712;2023-12-14T11:07:45;6.10;99.90
18260;DHT22;9256;52.236;5.712;2023-12-14T11:10:13;6.20;99.90
18260;DHT22;9256;52.236;5.712;2023-12-14T11:12:54;6.30;99.90
18260;DHT22;9256;52.236;5.712;2023-12-14T11:15:22;6.30;99.90
18260;DHT22;9256;52.236;5.712;2023-12-14T11:18:26;6.40;99.90
18260;DHT22;9256;52.236;5.712;2023-12-14T11:20:58;6.50;99.90
18260;DHT22;9256;52.236;5.712;2023-12-14T11:23:34;6.30;99.90
18260;DHT22;9256;52.236;5.712;2023-12-14T11:26:03;6.10;99.90
18260;DHT22;9256;52.236;5.712;2023-12-14T11:28:33;6.10;99.90
18260;DHT22;9256;52.236;5.712;2023-12-14T11:31:01;6.10;99.90
18260;DHT22;9256;52.236;5.712;2023-12-14T11:33:32;6.20;99.90
18260;DHT22;9256;52.236;5.712;2023-12-14T11:36:01;6.30;99.90
18260;DHT22;9256;52.236;5.712;2023-12-14T11:38:29;6.30;99.90
18260;DHT22;9256;52.236;5.712;2023-12-14T11:40:57;6.40;99.90
18260;DHT22;9256;52.236;5.712;2023-12-14T11:43:24;6.40;99.90
18260;DHT22;9256;52.236;5.712;2023-12-14T11:45:53;6.40;99.90
18260;DHT22;9256;52.236;5.712;2023-12-14T11:48:21;6.40;99.90
18260;DHT22;9256;52.236;5.712;2023-12-14T11:50:48;6.50;99.90
18260;DHT22;9256;52.236;5.712;2023-12-14T11:53:15;6.60;99.90
18260;DHT22;9256;52.236;5.712;2023-12-14T11:55:43;6.60;99.90
18260;DHT22;9256;52.236;5.712;2023-12-14T11:58:12;6.70;99.90
18260;DHT22;9256;52.236;5.712;2023-12-14T12:00:40;6.90;99.90
18260;DHT22;9256;52.236;5.712;2023-12-14T12:03:10;6.80;99.90
18260;DHT22;9256;52.236;5.712;2023-12-14T12:05:39;6.70;99.90
18260;DHT22;9256;52.236;5.712;2023-12-14T12:08:06;6.70;99.90
18260;DHT22;9256;52.236;5.712;2023-12-14T12:10:33;6.80;99.90
18260;DHT22;9256;52.236;5.712;2023-12-14T12:13:02;6.90;99.90
18260;DHT22;9256;52.236;5.712;2023-12-14T12:15:31;6.90;99.90
18260;DHT22;9256;52.236;5.712;2023-12-14T12:17:58;6.90;99.90
18260;DHT22;9256;52.236;5.712;2023-12-14T12:20:26;7.00;99.90
18260;DHT22;9256;52.236;5.712;2023-12-14T12:22:53;6.70;99.90
18260;DHT22;9256;52.236;5.712;2023-12-14T12:25:21;6.90;99.90
18260;DHT22;9256;52.236;5.712;2023-12-14T12:27:48;6.90;99.90
18260;DHT22;9256;52.236;5.712;2023-12-14T12:30:15;6.90;99.90
18260;DHT22;9256;52.236;5.712;2023-12-14T12:32:42;6.90;99.90
18260;DHT22;9256;52.236;5.712;2023-12-14T12:35:10;6.60;99.90
18260;DHT22;9256;52.236;5.712;2023-12-14T12:37:38;6.60;99.90
18260;DHT22;9256;52.236;5.712;2023-12-14T12:40:06;6.70;99.90
18260;DHT22;9256;52.236;5.712;2023-12-14T12:42:33;6.70;99.90
18260;DHT22;9256;52.236;5.712;2023-12-14T12:45:00;6.70;99.90
18260;DHT22;9256;52.236;5.712;2023-12-14T12:47:27;6.70;99.90
18260;DHT22;9256;52.236;5.712;2023-12-14T12:49:54;6.70;99.90
18260;DHT22;9256;52.236;5.712;2023-12-14T12:52:21;6.70;99.90
18260;DHT22;9256;52.236;5.712;2023-12-14T12:54:49;6.60;99.90
18260;DHT22;9256;52.236;5.712;2023-12-14T12:57:16;6.60;99.90
18260;DHT22;9256;52.236;5.712;2023-12-14T12:59:43;6.60;99.90
18260;DHT22;9256;52.236;5.712;2023-12-14T13:02:11;6.70;99.90
18260;DHT22;9256;52.236;5.712;2023-12-14T13:04:38;6.70;99.90
18260;DHT22;9256;52.236;5.712;2023-12-14T13:07:05;6.80;99.90
18260;DHT22;9256;52.236;5.712;2023-12-14T13:09:32;6.80;99.90
18260;DHT22;9256;52.236;5.712;2023-12-14T13:12:00;6.60;99.90
18260;DHT22;9256;52.236;5.712;2023-12-14T13:14:27;6.60;99.90
18260;DHT22;9256;52.236;5.712;2023-12-14T13:16:54;6.50;99.90
18260;DHT22;9256;52.236;5.712;2023-12-14T13:19:20;6.40;99.90
18260;DHT22;9256;52.236;5.712;2023-12-14T13:21:48;6.40;99.90
18260;DHT22;9256;52.236;5.712;2023-12-14T13:24:15;6.50;99.90
18260;DHT22;9256;52.236;5.712;2023-12-14T13:26:42;6.40;99.90
18260;DHT22;9256;52.236;5.712;2023-12-14T13:29:10;6.40;99.90
18260;DHT22;9256;52.236;5.712;2023-12-14T13:31:37;6.50;99.90
18260;DHT22;9256;52.236;5.712;2023-12-14T13:34:04;6.50;99.90
18260;DHT22;9256;52.236;5.712;2023-12-14T13:36:34;6.50;99.90
18260;DHT22;9256;52.236;5.712;2023-12-14T13:39:01;6.40;99.90
18260;DHT22;9256;52.236;5.712;2023-12-14T13:41:28;6.40;99.90
18260;DHT22;9256;52.236;5.712;2023-12-14T13:43:59;6.50;99.90
18260;DHT22;9256;52.236;5.712;2023-12-14T13:46:27;6.40;99.90
18260;DHT22;9256;52.236;5.712;2023-12-14T13:48:54;6.40;99.90
18260;DHT22;9256;52.236;5.712;2023-12-14T13:51:21;6.40;99.90
18260;DHT22;9256;52.236;5.712;2023-12-14T13:53:48;6.40;99.90
18260;DHT22;9256;52.236;5.712;2023-12-14T13:56:19;6.40;99.90
18260;DHT22;9256;52.236;5.712;2023-12-14T13:58:46;6.50;99.90
18260;DHT22;9256;52.236;5.712;2023-12-14T14:01:13;6.50;99.90
18260;DHT22;9256;52.236;5.712;2023-12-14T14:03:42;6.60;99.90
18260;DHT22;9256;52.236;5.712;2023-12-14T14:06:10;6.70;99.90
18260;DHT22;9256;52.236;5.712;2023-12-14T14:08:37;6.70;99.90
18260;DHT22;9256;52.236;5.712;2023-12-14T14:11:05;6.80;99.90
18260;DHT22;9256;52.236;5.712;2023-12-14T14:13:32;6.70;99.90
18260;DHT22;9256;52.236;5.712;2023-12-14T14:15:59;6.70;99.90
18260;DHT22;9256;52.236;5.712;2023-12-14T14:18:26;6.80;99.90
18260;DHT22;9256;52.236;5.712;2023-12-14T14:20:55;6.80;99.90
18260;DHT22;9256;52.236;5.712;2023-12-14T14:23:22;6.80;99.90
18260;DHT22;9256;52.236;5.712;2023-12-14T14:25:51;6.90;99.90
18260;DHT22;9256;52.236;5.712;2023-12-14T14:28:20;6.80;99.90
18260;DHT22;9256;52.236;5.712;2023-12-14T14:30:47;6.80;99.90
18260;DHT22;9256;52.236;5.712;2023-12-14T14:33:16;6.70;99.90
18260;DHT22;9256;52.236;5.712;2023-12-14T14:35:44;6.70;99.90
18260;DHT22;9256;52.236;5.712;2023-12-14T14:38:13;6.50;99.90
18260;DHT22;9256;52.236;5.712;2023-12-14T14:40:40;6.50;99.90
18260;DHT22;9256;52.236;5.712;2023-12-14T14:43:08;6.40;99.90
18260;DHT22;9256;52.236;5.712;2023-12-14T14:45:35;6.30;99.90
18260;DHT22;9256;52.236;5.712;2023-12-14T14:48:03;6.30;99.90
18260;DHT22;9256;52.236;5.712;2023-12-14T14:50:31;6.20;99.90
18260;DHT22;9256;52.236;5.712;2023-12-14T14:52:58;6.10;99.90
18260;DHT22;9256;52.236;5.712;2023-12-14T14:55:26;6.10;99.90
18260;DHT22;9256;52.236;5.712;2023-12-14T14:57:53;6.10;99.90
18260;DHT22;9256;52.236;5.712;2023-12-14T15:00:20;6.10;99.90
18260;DHT22;9256;52.236;5.712;2023-12-14T15:02:49;6.00;99.90
18260;DHT22;9256;52.236;5.712;2023-12-14T15:05:16;5.90;99.90
18260;DHT22;9256;52.236;5.712;2023-12-14T15:07:42;5.90;99.90
18260;DHT22;9256;52.236;5.712;2023-12-14T15:10:09;5.90;99.90
18260;DHT22;9256;52.236;5.712;2023-12-14T15:12:38;5.90;99.90
18260;DHT22;9256;52.236;5.712;2023-12-14T15:15:05;5.90;99.90
18260;DHT22;9256;52.236;5.712;2023-12-14T15:17:32;5.90;99.90
18260;DHT22;9256;52.236;5.712;2023-12-14T15:19:59;5.80;99.90
18260;DHT22;9256;52.236;5.712;2023-12-14T15:22:26;5.80;99.90
18260;DHT22;9256;52.236;5.712;2023-12-14T15:24:53;5.80;99.90
18260;DHT22;9256;52.236;5.712;2023-12-14T15:27:19;5.80;99.90
18260;DHT22;9256;52.236;5.712;2023-12-14T15:29:48;5.70;99.90
18260;DHT22;9256;52.236;5.712;2023-12-14T15:32:16;5.70;99.90
18260;DHT22;9256;52.236;5.712;2023-12-14T15:34:42;5.70;99.90
18260;DHT22;9256;52.236;5.712;2023-12-14T15:37:09;5.70;99.90
18260;DHT22;9256;52.236;5.712;2023-12-14T15:39:36;5.70;99.90
18260;DHT22;9256;52.236;5.712;2023-12-14T15:42:03;5.70;99.90
18260;DHT22;9256;52.236;5.712;2023-12-14T15:44:30;5.80;99.90
18260;DHT22;9256;52.236;5.712;2023-12-14T15:47:00;5.70;99.90
18260;DHT22;9256;52.236;5.712;2023-12-14T15:49:27;5.70;99.90
18260;DHT22;9256;52.236;5.712;2023-12-14T15:51:53;5.70;99.90
18260;DHT22;9256;52.236;5.712;2023-12-14T15:54:23;5.60;99.90
18260;DHT22;9256;52.236;5.712;2023-12-14T15:56:49;5.60;99.90
18260;DHT22;9256;52.236;5.712;2023-12-14T15:59:16;5.60;99.90
18260;DHT22;9256;52.236;5.712;2023-12-14T16:01:43;5.60;99.90
18260;DHT22;9256;52.236;5.712;2023-12-14T16:04:11;5.60;99.90